Sigfox identifier Datetime Temperature Humidity SNR
003B7C67 2018-10-09 09:04:02 20.6 39 12.6
003B7C67 2018-10-09 08:01:10 20.6 39 12.5
003B7C67 2018-10-09 06:58:17 20.5 39 17.6
003B7C67 2018-10-09 05:55:29 20.5 39 17.6
003B7C67 2018-10-09 04:52:39 20.5 39 17.6
003B7C67 2018-10-09 01:44:05 20.5 39 17.4
003B7C67 2018-10-09 00:41:11 20.4 39 17.3
003B7C67 2018-10-08 23:38:21 20.4 39 17.3
003B7C67 2018-10-08 22:35:32 20.4 39 17.2
003B7C67 2018-10-08 21:32:39 20.4 39 17.1
003B7C67 2018-10-08 20:29:49 20.4 39 17
003B7C67 2018-10-08 19:26:56 20.4 39 16.9
003B7C67 2018-10-08 18:24:04 20.3 39 16.8
003B7C67 2018-10-08 16:18:21 20.2 39 16.7
003B7C67 2018-10-08 14:12:36 20.2 39 16.7
003B7C67 2018-10-08 05:49:39 20.2 39 16.8
003B7C67 2018-10-08 04:46:42 20.4 39 16.7
003B7C67 2018-10-08 02:40:51 20.4 40 16.7
003B7C67 2018-10-08 00:35:04 20.4 40 16.7
003B7C67 2018-10-07 23:32:12 20.4 40 16.7
003B7C67 2018-10-07 22:29:22 20.4 40 16.7
003B7C67 2018-10-07 20:23:33 20.4 40 16.7
003B7C67 2018-10-07 19:20:43 20.4 40 16.7
003B7C67 2018-10-07 16:12:01 20.5 40 16.7
003B7C67 2018-10-07 15:09:04 20.6 40 16.8
003B7C67 2018-10-07 14:06:08 20.6 40 8.8
003B7C67 2018-10-07 13:03:13 20.6 40 8.8
003B7C67 2018-10-07 12:00:16 20.6 40 8.7
003B7C67 2018-10-07 10:57:25 20.6 40 8.7
003B7C67 2018-10-07 07:48:40 20.6 40 8.9
003B7C67 2018-10-07 05:42:46 20.7 40 8.9
003B7C67 2018-10-07 04:39:49 20.7 40 8.9
003B7C67 2018-10-07 01:31:08 20.8 40 8.8
003B7C67 2018-10-07 00:28:18 20.8 40 8.7
003B7C67 2018-10-06 20:16:34 20.8 40 8.9
003B7C67 2018-10-06 19:13:42 20.8 40 9
003B7C67 2018-10-06 12:56:07 20.8 40 9.2
003B7C67 2018-10-06 09:47:11 20.9 40 9.6
003B7C67 2018-10-06 06:38:30 21 40 9.7
003B7C67 2018-10-06 05:35:30 21 40 9.8
003B7C67 2018-10-06 04:32:32 21 40 9.8
003B7C67 2018-10-06 02:26:36 21 40 10.1
003B7C67 2018-10-06 01:23:42 21 40 10.2
003B7C67 2018-10-06 00:20:46 21 40 10.3
003B7C67 2018-10-05 23:17:47 21 40 10.4
003B7C67 2018-10-05 21:11:50 21 39 10.4
003B7C67 2018-10-05 20:08:57 21 39 10.5
003B7C67 2018-10-05 18:03:08 21 39 10.6
003B7C67 2018-10-05 13:51:20 20.8 38 10.7
003B7C67 2018-10-05 12:48:20 20.8 38 10.7
003B7C67 2018-10-05 11:45:23 20.8 38 10.8
003B7C67 2018-10-05 10:42:23 20.6 33 11
003B7C67 2018-10-05 07:33:32 20.6 33 11.2
003B7C67 2018-10-05 04:24:37 20.6 33 11.1
003B7C67 2018-10-05 02:18:44 20.8 33 11
003B7C67 2018-10-05 01:15:46 20.8 33 11.3
003B7C67 2018-10-05 00:12:44 20.7 33 11.3
003B7C67 2018-10-04 23:09:46 20.7 33 11.6
003B7C67 2018-10-04 21:03:52 20.8 33 12
003B7C67 2018-10-04 20:00:49 20.8 32 12.1
003B7C67 2018-10-04 18:57:54 20.8 32 12.5
003B7C67 2018-10-04 16:51:57 20.8 31 12.6
003B7C67 2018-10-04 15:48:56 20.8 31 11.7
003B7C67 2018-10-04 14:45:56 20.8 31 12
003B7C67 2018-10-04 13:42:56 20.9 32 12.7
003B7C67 2018-10-04 12:39:55 21 33 14.4
003B7C67 2018-10-04 11:36:47 20.4 43 0